Time;durP1;ratioP1;P1;durP2;ratioP2;P2;SDS_P1;SDS_P2;PMS_P1;PMS_P2;Temp;Humidity;BMP_temperature;BMP_pressure;BME280_temperature;BME280_humidity;BME280_pressure;Samples;Min_cycle;Max_cycle;Signal;HPM_P1;HPM_P2
2021/06/14 00:01:47;;;;;;;3.30;2.20;;;19.30;55.70;;;;;;5074591;28;20219;-83
2021/06/14 00:04:12;;;;;;;5.47;2.43;;;19.30;55.70;;;;;;5074451;28;20188;-83
2021/06/14 00:06:38;;;;;;;3.73;2.17;;;19.30;55.60;;;;;;5073170;28;20660;-83
2021/06/14 00:09:05;;;;;;;5.30;2.40;;;19.30;55.70;;;;;;5060090;28;20535;-82
2021/06/14 00:11:31;;;;;;;3.03;2.13;;;19.30;56.00;;;;;;5082591;28;20174;-82
2021/06/14 00:13:57;;;;;;;3.30;2.10;;;19.30;56.00;;;;;;5078529;28;20641;-81
2021/06/14 00:16:22;;;;;;;2.60;2.10;;;19.20;56.10;;;;;;5077036;28;20271;-81
2021/06/14 00:18:48;;;;;;;4.07;2.13;;;19.20;56.30;;;;;;5077436;28;20654;-81
2021/06/14 00:21:14;;;;;;;3.90;2.10;;;19.20;56.30;;;;;;5077270;28;20206;-82
2021/06/14 00:23:40;;;;;;;4.10;2.47;;;19.20;56.30;;;;;;5081811;28;20207;-82
2021/06/14 00:26:10;;;;;;;2.63;1.80;;;19.20;56.50;;;;;;5080684;28;20181;-82
2021/06/14 00:28:37;;;;;;;3.50;2.30;;;19.10;56.50;;;;;;5077829;28;20567;-82
2021/06/14 00:31:04;;;;;;;4.20;2.27;;;19.10;56.70;;;;;;5080813;28;20586;-82
2021/06/14 00:33:30;;;;;;;3.67;2.30;;;19.10;56.80;;;;;;5080440;28;20634;-82
2021/06/14 00:35:55;;;;;;;4.30;2.07;;;19.00;56.90;;;;;;5078888;28;20601;-81
2021/06/14 00:38:22;;;;;;;4.40;2.17;;;19.00;57.30;;;;;;5076688;28;20183;-82
2021/06/14 00:40:49;;;;;;;3.30;2.13;;;19.00;57.30;;;;;;5077951;28;20610;-82
2021/06/14 00:43:16;;;;;;;3.07;2.00;;;19.00;57.40;;;;;;5079282;28;20598;-82
2021/06/14 00:45:46;;;;;;;3.90;2.00;;;19.00;57.60;;;;;;5072458;28;20908;-82
2021/06/14 00:48:13;;;;;;;3.00;2.30;;;18.90;57.70;;;;;;5073455;28;20673;-82
2021/06/14 00:50:44;;;;;;;4.57;2.20;;;18.90;57.80;;;;;;5074578;28;20569;-83
2021/06/14 00:53:16;;;;;;;3.63;2.20;;;18.90;58.10;;;;;;5072770;28;20650;-83
2021/06/14 00:55:43;;;;;;;2.60;2.03;;;18.90;58.00;;;;;;5074231;28;20624;-82
2021/06/14 00:58:09;;;;;;;5.03;2.10;;;18.80;58.00;;;;;;5074082;28;20559;-82
2021/06/14 01:00:34;;;;;;;4.70;2.13;;;18.80;58.00;;;;;;5073818;28;20667;-82
2021/06/14 01:03:01;;;;;;;5.20;2.40;;;18.80;58.30;;;;;;5071284;28;20606;-82
2021/06/14 01:05:31;;;;;;;2.70;2.20;;;18.80;58.40;;;;;;5054925;28;20567;-82
2021/06/14 01:07:57;;;;;;;4.03;1.80;;;18.70;58.60;;;;;;5075994;28;20577;-82
2021/06/14 01:10:24;;;;;;;5.40;2.00;;;18.70;58.70;;;;;;5075762;28;21120;-83
2021/06/14 01:13:06;;;;;;;4.10;1.90;;;18.70;58.80;;;;;;5076595;28;20657;-83
2021/06/14 01:16:02;;;;;;;6.43;2.73;;;18.70;59.10;;;;;;5078346;28;20665;-82
2021/06/14 01:19:06;;;;;;;2.63;1.83;;;18.60;59.10;;;;;;5076098;28;20562;-82
2021/06/14 01:21:56;;;;;;;4.50;2.60;;;18.60;59.70;;;;;;5043757;28;20590;-82
2021/06/14 01:24:48;;;;;;;2.93;1.70;;;18.60;59.40;;;;;;5078446;28;20563;-82
2021/06/14 01:27:29;;;;;;;4.67;2.00;;;18.50;60.20;;;;;;5085229;28;21145;-82
2021/06/14 01:29:56;;;;;;;3.47;2.50;;;18.50;60.20;;;;;;5078581;28;20577;-83
2021/06/14 01:32:22;;;;;;;4.03;2.30;;;18.50;60.00;;;;;;5070985;28;20686;-82
2021/06/14 01:34:48;;;;;;;3.80;2.13;;;18.40;59.90;;;;;;5054287;28;20918;-83
2021/06/14 01:37:16;;;;;;;9.40;1.97;;;18.40;61.60;;;;;;5071930;28;20563;-83
2021/06/14 01:39:43;;;;;;;4.10;2.20;;;18.30;62.10;;;;;;5072597;28;20570;-82
2021/06/14 01:42:09;;;;;;;4.87;2.70;;;18.30;61.40;;;;;;5072590;28;20701;-82
2021/06/14 01:44:37;;;;;;;4.13;2.20;;;18.30;62.00;;;;;;5078000;28;20978;-83
2021/06/14 01:47:07;;;;;;;2.50;1.70;;;18.30;62.60;;;;;;5072614;28;20697;-83
2021/06/14 01:49:33;;;;;;;2.20;1.90;;;18.20;62.70;;;;;;5073143;28;20562;-83
2021/06/14 01:52:26;;;;;;;4.17;2.10;;;18.20;62.70;;;;;;5070716;28;20708;-83
2021/06/14 01:54:55;;;;;;;4.10;2.13;;;18.20;64.10;;;;;;5071883;28;20567;-83
2021/06/14 01:57:40;;;;;;;4.40;1.70;;;18.20;64.50;;;;;;5071466;28;20587;-83
2021/06/14 02:00:19;;;;;;;3.67;1.70;;;18.10;65.10;;;;;;5071693;28;20563;-83
2021/06/14 02:02:54;;;;;;;3.60;2.23;;;18.10;64.10;;;;;;5054853;28;20606;-83
2021/06/14 02:05:34;;;;;;;3.33;2.30;;;18.10;64.40;;;;;;5072722;28;20642;-84
2021/06/14 02:08:01;;;;;;;2.40;1.80;;;18.10;64.60;;;;;;5071804;28;20662;-83
2021/06/14 02:10:29;;;;;;;3.60;2.00;;;18.10;65.00;;;;;;5071459;28;20614;-83
2021/06/14 02:12:55;;;;;;;4.00;2.27;;;18.00;65.20;;;;;;5070536;28;20649;-83
2021/06/14 02:15:22;;;;;;;2.80;2.43;;;18.10;66.40;;;;;;5070446;28;20711;-82
2021/06/14 02:17:51;;;;;;;2.80;1.80;;;18.00;66.30;;;;;;5070479;28;20570;-82
2021/06/14 02:20:18;;;;;;;2.60;1.90;;;18.00;66.30;;;;;;5073745;28;20571;-81
2021/06/14 02:22:45;;;;;;;8.63;1.50;;;18.00;66.80;;;;;;5078137;28;20625;-81
2021/06/14 02:25:11;;;;;;;3.70;2.40;;;17.90;66.60;;;;;;5079081;28;21102;-82
2021/06/14 02:27:39;;;;;;;2.67;1.70;;;17.90;69.00;;;;;;5058107;28;20691;-82
2021/06/14 02:30:22;;;;;;;3.40;2.10;;;17.90;67.70;;;;;;5076467;28;20562;-82
2021/06/14 02:32:48;;;;;;;4.50;2.00;;;17.90;69.10;;;;;;5061938;28;20732;-81
2021/06/14 02:35:15;;;;;;;3.77;2.37;;;17.80;68.70;;;;;;5078976;28;20575;-81
2021/06/14 02:37:46;;;;;;;2.97;1.80;;;17.80;68.70;;;;;;5081619;28;20567;-83
2021/06/14 02:40:12;;;;;;;2.30;1.70;;;17.80;69.30;;;;;;5075836;28;21012;-82
2021/06/14 02:42:39;;;;;;;5.53;1.90;;;17.80;69.00;;;;;;5076858;28;20690;-82
2021/06/14 02:45:07;;;;;;;3.10;1.70;;;17.80;69.30;;;;;;5076636;28;20567;-82
2021/06/14 02:47:35;;;;;;;4.97;1.63;;;17.70;69.60;;;;;;5075347;28;20573;-82
2021/06/14 02:50:05;;;;;;;3.27;1.80;;;17.70;70.00;;;;;;5076707;28;20598;-82
2021/06/14 02:52:33;;;;;;;4.03;2.23;;;17.70;70.40;;;;;;5079097;28;21058;-82
2021/06/14 02:55:13;;;;;;;4.30;2.10;;;17.70;70.40;;;;;;5079417;28;20567;-82
2021/06/14 02:57:53;;;;;;;5.73;2.00;;;17.60;71.00;;;;;;5079355;28;20573;-82
2021/06/14 03:00:26;;;;;;;2.80;1.93;;;17.60;70.80;;;;;;5077616;28;20581;-83
2021/06/14 03:03:03;;;;;;;2.20;1.53;;;17.60;71.40;;;;;;5077516;28;21073;-83
2021/06/14 03:05:30;;;;;;;4.32;2.45;;;17.50;71.00;;;;;;5081497;28;20973;-83
2021/06/14 03:07:58;;;;;;;3.07;1.90;;;17.50;71.40;;;;;;5077330;28;20683;-83
2021/06/14 03:10:26;;;;;;;4.43;1.73;;;17.50;71.60;;;;;;5076171;28;20635;-83
2021/06/14 03:12:56;;;;;;;2.43;1.63;;;17.50;72.30;;;;;;5076238;28;20706;-83
2021/06/14 03:15:25;;;;;;;2.83;1.90;;;17.50;73.50;;;;;;5076667;28;20587;-83
2021/06/14 03:17:55;;;;;;;4.43;1.97;;;17.40;73.40;;;;;;5077527;28;20663;-83
2021/06/14 03:20:24;;;;;;;2.38;1.40;;;17.40;73.70;;;;;;5075968;28;20573;-83
2021/06/14 03:22:51;;;;;;;2.83;1.80;;;17.30;75.60;;;;;;5075589;28;20250;-79
2021/06/14 03:25:18;;;;;;;2.87;1.63;;;17.30;74.90;;;;;;5072073;28;20566;-78
2021/06/14 03:27:45;;;;;;;3.23;2.20;;;17.30;74.70;;;;;;5055471;28;20618;-78
2021/06/14 03:30:13;;;;;;;3.20;2.17;;;17.30;75.60;;;;;;5072802;28;20593;-79
2021/06/14 03:32:42;;;;;;;3.50;1.63;;;17.30;75.60;;;;;;5074298;28;20637;-78
2021/06/14 03:35:11;;;;;;;3.37;2.30;;;17.30;75.90;;;;;;5078151;28;21149;-79
2021/06/14 03:37:37;;;;;;;3.10;2.33;;;17.20;76.50;;;;;;5073048;28;20617;-79
2021/06/14 03:40:04;;;;;;;6.40;2.23;;;17.30;77.30;;;;;;5073184;28;21366;-79
2021/06/14 03:42:31;;;;;;;2.50;1.73;;;17.20;78.20;;;;;;5073581;28;21211;-78
2021/06/14 03:45:00;;;;;;;3.30;1.80;;;17.20;78.10;;;;;;5072221;28;21010;-78
2021/06/14 03:47:26;;;;;;;4.03;1.90;;;17.20;78.00;;;;;;5072011;28;20929;-78
2021/06/14 03:49:53;;;;;;;3.40;2.33;;;17.20;78.10;;;;;;5072250;28;20566;-78
2021/06/14 03:52:18;;;;;;;1.98;1.77;;;17.20;79.30;;;;;;5073522;28;20200;-78
2021/06/14 03:54:44;;;;;;;3.73;1.73;;;17.20;78.90;;;;;;5072604;28;20172;-78
2021/06/14 03:57:10;;;;;;;3.90;2.53;;;17.20;79.30;;;;;;5072990;28;20558;-78
2021/06/14 03:59:36;;;;;;;2.00;1.63;;;17.20;79.50;;;;;;5071844;28;20278;-79
2021/06/14 04:02:02;;;;;;;3.90;2.47;;;17.20;79.50;;;;;;5070678;28;20566;-79
2021/06/14 04:04:42;;;;;;;2.50;1.90;;;17.20;80.00;;;;;;5072091;28;20165;-79
2021/06/14 04:07:18;;;;;;;7.53;2.50;;;17.20;80.70;;;;;;5071662;28;20520;-79
2021/06/14 04:09:44;;;;;;;3.30;2.20;;;17.20;82.00;;;;;;5057065;28;20577;-79
2021/06/14 04:12:11;;;;;;;4.17;2.30;;;17.20;80.70;;;;;;5075610;28;20296;-79
2021/06/14 04:14:38;;;;;;;4.63;1.97;;;17.30;81.00;;;;;;5071753;28;20172;-78
2021/06/14 04:17:05;;;;;;;5.80;2.10;;;17.30;81.10;;;;;;5072783;28;20559;-78
2021/06/14 04:19:31;;;;;;;3.17;2.00;;;17.30;81.70;;;;;;5071615;28;20625;-78
2021/06/14 04:21:57;;;;;;;3.63;2.00;;;17.30;82.30;;;;;;5072690;28;20563;-79
2021/06/14 04:24:24;;;;;;;5.60;2.90;;;17.30;82.80;;;;;;5071754;28;21019;-79
2021/06/14 04:26:49;;;;;;;3.13;1.90;;;17.30;85.20;;;;;;5072278;28;20670;-78
2021/06/14 04:29:15;;;;;;;3.87;2.83;;;17.40;85.40;;;;;;5071387;28;20682;-78
2021/06/14 04:31:42;;;;;;;2.83;1.47;;;17.40;84.80;;;;;;5072655;28;20767;-79
2021/06/14 04:34:08;;;;;;;4.13;2.17;;;17.50;85.40;;;;;;5072463;28;20987;-79
2021/06/14 04:36:34;;;;;;;3.70;2.30;;;17.50;85.40;;;;;;5070766;28;20563;-79
2021/06/14 04:39:00;;;;;;;2.93;2.07;;;17.60;85.70;;;;;;5072332;28;20172;-79
2021/06/14 04:41:26;;;;;;;6.67;1.70;;;17.60;85.70;;;;;;5072483;28;20657;-79
2021/06/14 04:43:52;;;;;;;3.60;2.20;;;17.70;85.60;;;;;;5072640;28;20724;-80
2021/06/14 04:46:18;;;;;;;4.77;2.80;;;17.70;86.00;;;;;;5073989;28;20578;-79
2021/06/14 04:48:44;;;;;;;3.43;2.33;;;17.70;85.70;;;;;;5074604;28;20172;-79
2021/06/14 04:51:09;;;;;;;4.97;2.17;;;17.80;85.80;;;;;;5072354;28;20184;-79
2021/06/14 04:53:36;;;;;;;4.23;2.53;;;17.80;86.40;;;;;;5070989;28;20675;-79
2021/06/14 04:56:02;;;;;;;3.20;1.90;;;17.90;86.50;;;;;;5072092;28;20167;-79
2021/06/14 04:58:28;;;;;;;2.30;1.97;;;17.90;87.10;;;;;;5071842;28;20562;-78
2021/06/14 05:00:54;;;;;;;3.70;2.07;;;18.00;88.30;;;;;;5054241;28;20578;-78
2021/06/14 05:03:19;;;;;;;3.50;2.30;;;18.20;87.80;;;;;;5071893;28;20557;-78
2021/06/14 05:05:45;;;;;;;3.87;2.50;;;18.30;87.50;;;;;;5072066;28;20640;-78
2021/06/14 05:08:12;;;;;;;6.70;3.07;;;18.40;87.50;;;;;;5070417;28;20195;-78
2021/06/14 05:10:39;;;;;;;2.90;2.00;;;18.50;88.20;;;;;;5070846;28;20259;-78
2021/06/14 05:13:04;;;;;;;4.17;2.27;;;18.70;88.10;;;;;;5071516;28;20623;-78
2021/06/14 05:15:30;;;;;;;2.73;1.90;;;18.90;88.30;;;;;;5054176;28;20926;-78
2021/06/14 05:17:56;;;;;;;6.00;1.73;;;19.10;87.80;;;;;;5070371;28;20617;-78
2021/06/14 05:20:22;;;;;;;5.47;2.43;;;19.30;87.50;;;;;;5072073;28;20563;-79
2021/06/14 05:22:48;;;;;;;5.63;2.50;;;19.40;86.50;;;;;;5071621;28;20199;-78
2021/06/14 05:25:14;;;;;;;3.50;2.20;;;19.60;85.90;;;;;;5074088;28;20175;-79
2021/06/14 05:27:40;;;;;;;4.73;2.13;;;19.60;85.20;;;;;;5071304;28;20555;-79
2021/06/14 05:30:06;;;;;;;4.87;2.50;;;19.70;84.90;;;;;;5071445;28;20575;-79
2021/06/14 05:32:32;;;;;;;3.20;2.37;;;19.80;84.80;;;;;;5070251;28;20215;-78
2021/06/14 05:34:59;;;;;;;2.27;1.50;;;19.80;84.70;;;;;;5070263;28;20575;-78
2021/06/14 05:37:25;;;;;;;3.90;2.30;;;19.90;84.70;;;;;;5071195;28;20590;-79
2021/06/14 05:39:50;;;;;;;4.00;2.10;;;20.00;84.50;;;;;;5070636;28;20668;-78
2021/06/14 05:42:16;;;;;;;3.33;2.10;;;20.20;84.40;;;;;;5072108;28;20199;-78
2021/06/14 05:44:42;;;;;;;3.20;2.10;;;20.40;84.80;;;;;;5072092;28;20640;-79
2021/06/14 05:47:07;;;;;;;5.00;2.00;;;20.70;84.90;;;;;;5071139;28;20252;-78
2021/06/14 05:49:33;;;;;;;5.70;2.20;;;21.10;85.60;;;;;;5072007;28;20168;-79
2021/06/14 05:52:00;;;;;;;6.03;2.13;;;21.70;86.10;;;;;;5073299;28;20188;-79
2021/06/14 05:54:26;;;;;;;5.70;2.10;;;22.40;86.20;;;;;;5039540;28;20164;-79
2021/06/14 05:56:52;;;;;;;3.10;1.67;;;23.10;85.00;;;;;;5073261;28;20570;-80
2021/06/14 05:59:18;;;;;;;2.97;1.47;;;23.90;85.30;;;;;;5054672;28;20572;-78
2021/06/14 06:01:43;;;;;;;2.67;1.60;;;24.90;85.30;;;;;;5056577;28;20172;-78
2021/06/14 06:04:09;;;;;;;2.40;1.50;;;25.90;82.50;;;;;;5070597;28;20184;-78
2021/06/14 06:06:35;;;;;;;3.57;1.73;;;26.70;79.50;;;;;;5070372;28;20164;-78
2021/06/14 06:09:01;;;;;;;4.40;1.87;;;27.50;78.40;;;;;;5071405;28;20203;-78
2021/06/14 06:11:27;;;;;;;4.37;1.90;;;28.30;76.50;;;;;;5070599;28;20629;-79
2021/06/14 06:13:52;;;;;;;4.97;1.60;;;29.10;71.90;;;;;;5071160;28;20204;-79
2021/06/14 06:16:18;;;;;;;3.80;1.83;;;29.70;69.20;;;;;;5053099;28;20172;-78
2021/06/14 06:18:44;;;;;;;2.27;1.80;;;30.20;67.20;;;;;;5071678;28;20172;-81
2021/06/14 06:21:10;;;;;;;2.57;1.50;;;30.60;63.80;;;;;;5070224;28;20683;-80
2021/06/14 06:23:36;;;;;;;2.37;1.60;;;30.90;62.30;;;;;;5070164;28;20227;-80
2021/06/14 06:26:01;;;;;;;2.90;1.67;;;31.20;59.00;;;;;;5073980;28;20566;-81
2021/06/14 06:28:27;;;;;;;3.37;1.90;;;31.70;59.30;;;;;;5074025;28;20593;-81
2021/06/14 06:30:53;;;;;;;2.87;1.90;;;32.10;56.50;;;;;;5074353;28;20576;-81
2021/06/14 06:33:19;;;;;;;4.20;1.67;;;32.60;56.20;;;;;;5075504;28;20216;-82
2021/06/14 06:35:44;;;;;;;6.70;2.40;;;32.70;53.70;;;;;;5076173;28;20162;-82
2021/06/14 06:38:11;;;;;;;2.70;1.97;;;32.90;52.30;;;;;;5079193;28;20390;-81
2021/06/14 06:40:36;;;;;;;4.27;1.80;;;32.90;51.10;;;;;;5075507;28;20186;-81
2021/06/14 06:43:02;;;;;;;4.07;1.40;;;32.90;51.20;;;;;;5074010;28;20599;-81
2021/06/14 06:45:28;;;;;;;2.30;1.27;;;33.20;50.40;;;;;;5073828;28;20646;-82
2021/06/14 06:47:53;;;;;;;2.70;1.60;;;33.10;48.80;;;;;;5074630;28;20565;-82
2021/06/14 06:50:20;;;;;;;2.83;1.20;;;33.10;48.80;;;;;;5074067;28;20644;-81
2021/06/14 06:52:46;;;;;;;4.07;1.97;;;33.30;49.10;;;;;;5074201;28;20197;-81
2021/06/14 06:55:15;;;;;;;2.43;1.57;;;33.50;48.30;;;;;;5073581;28;20580;-81
2021/06/14 06:57:41;;;;;;;3.70;1.50;;;33.60;48.00;;;;;;5075348;28;20582;-81
2021/06/14 07:00:17;;;;;;;5.20;1.60;;;33.80;47.20;;;;;;5058304;28;20685;-81
2021/06/14 07:02:44;;;;;;;5.90;2.27;;;33.70;46.90;;;;;;5075190;28;21017;-81
2021/06/14 07:05:10;;;;;;;3.20;1.67;;;33.90;46.60;;;;;;5074035;28;20568;-81
2021/06/14 07:07:36;;;;;;;2.73;1.47;;;33.90;45.80;;;;;;5057648;28;20569;-80
2021/06/14 07:10:05;;;;;;;2.50;1.33;;;33.90;45.00;;;;;;5078488;28;20589;-80
2021/06/14 07:12:35;;;;;;;3.03;1.37;;;33.90;45.10;;;;;;5061074;28;20252;-80
2021/06/14 07:15:01;;;;;;;3.47;1.70;;;33.80;44.40;;;;;;5079362;28;20596;-81
2021/06/14 07:17:28;;;;;;;3.10;1.30;;;34.00;45.30;;;;;;5077173;28;20585;-81
2021/06/14 07:19:53;;;;;;;2.13;1.37;;;34.20;45.30;;;;;;5058249;28;20972;-81
2021/06/14 07:22:19;;;;;;;3.43;1.63;;;34.30;44.50;;;;;;5074378;28;20691;-81
2021/06/14 07:24:45;;;;;;;1.97;1.37;;;34.40;44.50;;;;;;5073060;28;20216;-81
2021/06/14 07:27:11;;;;;;;2.03;1.20;;;34.60;44.30;;;;;;5072415;28;20607;-81
2021/06/14 07:29:37;;;;;;;2.23;1.70;;;34.80;44.00;;;;;;5072068;28;20658;-82
2021/06/14 07:32:03;;;;;;;2.17;1.30;;;34.70;43.40;;;;;;5074218;28;20570;-80
2021/06/14 07:34:29;;;;;;;2.43;1.50;;;34.80;43.60;;;;;;5057522;28;20160;-80
2021/06/14 07:36:56;;;;;;;3.87;1.43;;;34.90;43.20;;;;;;5093411;28;21113;-80
2021/06/14 07:39:22;;;;;;;4.07;1.50;;;35.00;42.90;;;;;;5092432;28;20205;-79
2021/06/14 07:41:48;;;;;;;3.60;1.43;;;34.90;42.90;;;;;;5093851;28;20567;-80
2021/06/14 07:44:14;;;;;;;3.70;1.67;;;34.90;42.60;;;;;;5080957;28;20593;-81
2021/06/14 07:46:40;;;;;;;2.63;1.50;;;35.10;42.60;;;;;;5057885;28;20188;-81
2021/06/14 07:49:06;;;;;;;3.50;1.53;;;35.40;42.30;;;;;;5075753;28;20571;-80
2021/06/14 07:51:32;;;;;;;4.33;1.37;;;35.70;42.40;;;;;;5072947;28;20593;-80
2021/06/14 07:53:58;;;;;;;3.30;1.60;;;35.70;41.70;;;;;;5073013;28;20204;-79
2021/06/14 07:56:23;;;;;;;2.33;1.30;;;35.70;41.70;;;;;;5056423;28;20169;-80
2021/06/14 07:58:49;;;;;;;3.60;1.57;;;36.00;41.90;;;;;;5072294;28;20172;-80
2021/06/14 08:01:15;;;;;;;2.80;1.30;;;36.10;41.70;;;;;;5073234;28;20180;-80
2021/06/14 08:03:41;;;;;;;3.77;1.50;;;36.30;41.10;;;;;;5072090;28;20204;-81
2021/06/14 08:06:07;;;;;;;1.93;1.53;;;36.30;40.60;;;;;;5072024;28;21150;-81
2021/06/14 08:08:34;;;;;;;3.83;1.43;;;36.30;40.60;;;;;;5072412;28;20164;-80
2021/06/14 08:11:00;;;;;;;5.37;1.80;;;36.60;40.50;;;;;;5072737;28;20593;-81
2021/06/14 08:13:28;;;;;;;3.60;1.70;;;36.70;39.90;;;;;;5073182;28;20621;-80
2021/06/14 08:15:54;;;;;;;7.07;1.90;;;36.60;39.90;;;;;;5072212;28;20597;-81
2021/06/14 08:18:41;;;;;;;4.10;1.67;;;36.80;39.70;;;;;;5072040;28;20586;-79
2021/06/14 08:26:32;;;;;;;2.90;1.30;;;37.50;39.20;;;;;;5077209;28;21055;-80
2021/06/14 08:29:00;;;;;;;3.40;1.97;;;37.70;39.00;;;;;;5078892;28;20558;-79
2021/06/14 08:34:39;;;;;;;2.87;1.83;;;37.40;37.80;;;;;;5586519;22;20765;-82
2021/06/14 08:37:05;;;;;;;2.90;1.43;;;37.10;35.80;;;;;;5053061;28;20927;-82
2021/06/14 08:39:31;;;;;;;2.47;1.53;;;36.90;37.50;;;;;;5005875;28;20598;-82
2021/06/14 08:41:59;;;;;;;3.83;1.90;;;36.80;37.60;;;;;;5060617;28;20514;-82
2021/06/14 08:44:25;;;;;;;20.03;2.03;;;36.90;37.40;;;;;;5053957;28;20667;-83
2021/06/14 08:46:55;;;;;;;3.40;1.40;;;36.80;37.60;;;;;;5053815;28;20579;-83
2021/06/14 08:49:21;;;;;;;3.10;1.43;;;37.00;37.10;;;;;;5091919;22;20671;-80
2021/06/14 08:51:47;;;;;;;2.70;1.30;;;37.00;37.40;;;;;;5051636;28;20693;-79
2021/06/14 08:54:14;;;;;;;3.30;1.43;;;37.00;37.20;;;;;;5050914;28;20173;-79
2021/06/14 08:56:40;;;;;;;5.00;1.67;;;37.20;37.00;;;;;;5051490;28;21230;-79
2021/06/14 08:59:06;;;;;;;3.50;1.30;;;37.20;36.50;;;;;;5033777;28;20618;-79
2021/06/14 09:01:32;;;;;;;4.23;1.23;;;37.10;36.20;;;;;;5051391;28;20922;-79
2021/06/14 09:03:58;;;;;;;3.90;1.77;;;37.10;36.90;;;;;;5050502;28;20208;-78
2021/06/14 09:06:24;;;;;;;4.00;1.43;;;37.70;37.30;;;;;;5051205;28;20530;-79
2021/06/14 09:09:02;;;;;;;2.37;1.57;;;37.90;36.90;;;;;;5050908;28;20626;-79
2021/06/14 09:11:30;;;;;;;2.17;1.50;;;38.20;36.00;;;;;;5033006;28;20600;-78
2021/06/14 09:17:04;;;;;;;2.63;2.03;;;38.00;35.00;;;;;;5847041;22;20662;-77
2021/06/14 09:19:33;;;;;;;3.43;1.10;;;38.00;36.10;;;;;;5066748;28;20625;-77
2021/06/14 09:22:15;;;;;;;3.70;1.40;;;38.20;35.70;;;;;;5064405;28;20702;-77
2021/06/14 09:25:00;;;;;;;1.70;1.20;;;38.30;35.20;;;;;;5051823;28;20575;-77
2021/06/14 09:27:30;;;;;;;2.43;1.37;;;38.00;35.00;;;;;;5050760;28;20700;-77
2021/06/14 09:29:57;;;;;;;2.70;1.63;;;37.90;34.90;;;;;;5052704;28;20985;-78
2021/06/14 09:32:23;;;;;;;2.77;1.63;;;37.50;34.70;;;;;;5053411;28;21165;-77
2021/06/14 09:34:53;;;;;;;3.10;1.77;;;37.40;34.80;;;;;;5066450;28;20594;-77
2021/06/14 09:37:20;;;;;;;2.70;1.23;;;37.20;34.60;;;;;;5066113;28;20801;-77
2021/06/14 09:39:48;;;;;;;3.10;1.30;;;37.00;35.00;;;;;;5057161;28;20585;-76
2021/06/14 09:42:20;;;;;;;3.50;1.50;;;37.00;35.40;;;;;;5051953;28;21219;-76
2021/06/14 09:44:52;;;;;;;5.60;1.27;;;37.30;35.50;;;;;;5051059;28;20969;-77
2021/06/14 09:47:18;;;;;;;3.77;1.40;;;37.50;35.30;;;;;;5049542;28;20607;-77
2021/06/14 09:50:03;;;;;;;3.17;1.87;;;37.70;35.10;;;;;;5051654;28;20575;-76
2021/06/14 09:52:29;;;;;;;3.23;1.30;;;37.80;34.80;;;;;;5051475;28;20613;-77
2021/06/14 09:55:15;;;;;;;4.15;1.35;;;37.80;34.40;;;;;;5051566;28;20826;-78
2021/06/14 09:57:41;;;;;;;1.70;1.20;;;38.00;35.10;;;;;;5051161;28;20318;-76
2021/06/14 10:00:11;;;;;;;1.87;1.30;;;38.40;35.10;;;;;;5052618;28;20627;-76
2021/06/14 10:02:37;;;;;;;1.97;1.60;;;38.70;34.60;;;;;;5053755;28;20199;-77
2021/06/14 10:05:18;;;;;;;2.23;1.17;;;38.90;33.70;;;;;;5054192;28;20559;-77
2021/06/14 10:07:45;;;;;;;4.73;1.50;;;38.70;33.20;;;;;;5053792;28;20192;-77
2021/06/14 10:10:21;;;;;;;2.30;1.40;;;38.50;33.40;;;;;;5053892;28;21335;-76
2021/06/14 10:12:52;;;;;;;3.60;1.37;;;38.20;32.80;;;;;;5054864;28;20610;-76
2021/06/14 10:15:31;;;;;;;4.43;1.43;;;38.20;32.60;;;;;;5055021;28;20579;-77
2021/06/14 10:17:57;;;;;;;2.53;1.50;;;37.90;32.60;;;;;;5053659;28;20642;-77
2021/06/14 10:20:26;;;;;;;4.73;1.63;;;37.70;33.10;;;;;;5053659;28;20695;-77
2021/06/14 10:22:54;;;;;;;3.40;1.47;;;37.80;34.00;;;;;;5053579;28;20706;-77
2021/06/14 10:25:21;;;;;;;3.57;1.37;;;38.10;33.90;;;;;;5055240;28;20582;-76
2021/06/14 10:27:47;;;;;;;2.10;1.20;;;38.60;33.90;;;;;;5053209;28;21006;-76
2021/06/14 10:30:15;;;;;;;2.00;1.33;;;38.80;33.70;;;;;;5055087;28;20952;-77
2021/06/14 10:32:43;;;;;;;2.10;1.40;;;38.90;33.00;;;;;;5056800;28;21153;-77
2021/06/14 10:35:11;;;;;;;3.80;1.70;;;39.00;32.50;;;;;;5069619;28;20618;-77
2021/06/14 10:37:46;;;;;;;2.80;1.40;;;39.00;32.30;;;;;;5063002;28;20607;-74
2021/06/14 10:40:15;;;;;;;2.37;1.40;;;39.30;32.20;;;;;;5063043;28;21013;-77
2021/06/14 10:42:45;;;;;;;4.20;1.50;;;39.20;32.50;;;;;;5062943;28;20614;-76
2021/06/14 10:45:18;;;;;;;3.73;1.83;;;39.50;32.20;;;;;;5062832;28;20594;-77
2021/06/14 10:47:46;;;;;;;2.13;1.30;;;39.50;32.40;;;;;;5063847;28;20599;-77
2021/06/14 10:50:15;;;;;;;3.17;1.40;;;39.80;33.10;;;;;;5062968;28;20567;-80
2021/06/14 10:52:47;;;;;;;2.57;1.20;;;39.90;32.40;;;;;;5059992;28;20644;-78
2021/06/14 10:55:18;;;;;;;3.40;1.60;;;39.90;32.40;;;;;;5065068;28;21016;-76
2021/06/14 10:57:44;;;;;;;3.30;1.30;;;39.70;31.90;;;;;;5062333;28;20702;-77
2021/06/14 11:00:34;;;;;;;2.67;1.30;;;39.50;31.50;;;;;;5061544;28;21203;-74
2021/06/14 11:03:06;;;;;;;2.27;0.93;;;39.20;32.20;;;;;;5063402;28;20948;-76
2021/06/14 11:05:33;;;;;;;3.00;1.20;;;39.30;32.80;;;;;;5061314;28;20678;-75
2021/06/14 11:08:18;;;;;;;1.90;1.10;;;39.50;32.60;;;;;;5050377;28;20624;-75
2021/06/14 11:10:57;;;;;;;2.03;1.37;;;39.60;33.30;;;;;;5053691;28;20586;-77
2021/06/14 11:13:23;;;;;;;3.30;1.70;;;39.90;32.60;;;;;;5063561;28;20682;-77
2021/06/14 11:15:55;;;;;;;1.63;0.93;;;39.70;32.10;;;;;;5062217;28;21005;-78
2021/06/14 11:18:32;;;;;;;3.20;1.43;;;39.80;32.20;;;;;;5061833;28;20540;-77
2021/06/14 11:21:14;;;;;;;1.70;1.10;;;39.70;31.30;;;;;;5053406;28;20590;-77
2021/06/14 11:23:42;;;;;;;2.07;1.20;;;39.30;31.20;;;;;;5063066;28;20636;-77
2021/06/14 11:26:11;;;;;;;3.13;1.40;;;39.00;31.70;;;;;;5062768;28;20979;-77
2021/06/14 11:28:40;;;;;;;2.77;1.43;;;39.00;31.80;;;;;;5061622;28;20965;-77
2021/06/14 11:31:18;;;;;;;2.33;1.10;;;38.60;31.50;;;;;;5060454;28;20581;-77
2021/06/14 11:33:45;;;;;;;2.00;1.00;;;38.30;31.50;;;;;;5063095;28;20582;-77
2021/06/14 11:36:26;;;;;;;2.67;1.30;;;38.30;32.30;;;;;;5063870;28;20595;-77
2021/06/14 11:38:54;;;;;;;1.47;0.80;;;38.30;32.60;;;;;;5054492;28;20578;-77
2021/06/14 11:41:34;;;;;;;1.87;0.90;;;38.50;32.40;;;;;;5061704;28;20586;-77
2021/06/14 11:44:23;;;;;;;2.07;1.00;;;38.60;32.70;;;;;;5066697;28;21202;-77
2021/06/14 11:46:53;;;;;;;1.70;1.00;;;38.70;32.40;;;;;;5063376;28;20592;-77
2021/06/14 11:49:28;;;;;;;1.90;1.00;;;38.90;31.90;;;;;;5062606;28;20583;-77
2021/06/14 11:51:54;;;;;;;2.73;1.40;;;38.90;32.20;;;;;;5063141;28;20572;-77
2021/06/14 11:54:20;;;;;;;1.90;1.00;;;38.90;32.20;;;;;;5061570;28;20576;-77
2021/06/14 11:56:59;;;;;;;1.93;1.40;;;38.90;32.50;;;;;;5061847;28;20238;-77
2021/06/14 11:59:36;;;;;;;1.70;1.00;;;39.00;33.10;;;;;;5063260;28;20570;-77
2021/06/14 12:02:15;;;;;;;2.53;1.13;;;39.10;34.30;;;;;;5072998;28;20554;-77
2021/06/14 12:04:42;;;;;;;2.00;1.30;;;39.00;32.60;;;;;;5071949;28;20620;-77
2021/06/14 12:07:08;;;;;;;1.97;1.13;;;38.80;32.80;;;;;;5071256;28;20590;-77
2021/06/14 12:09:39;;;;;;;2.87;1.13;;;38.70;32.60;;;;;;5061881;28;20942;-77
2021/06/14 12:12:06;;;;;;;2.63;1.03;;;38.60;32.20;;;;;;5051810;28;20263;-77
2021/06/14 12:14:33;;;;;;;2.87;1.00;;;38.30;32.00;;;;;;5051731;28;20588;-77
2021/06/14 12:17:07;;;;;;;2.93;1.23;;;38.10;32.20;;;;;;5052589;28;20728;-77
2021/06/14 12:19:35;;;;;;;1.80;1.23;;;38.00;32.40;;;;;;5054040;28;20693;-77
2021/06/14 12:22:06;;;;;;;2.30;1.67;;;37.90;32.50;;;;;;5061781;28;20666;-77
2021/06/14 12:24:37;;;;;;;2.63;1.13;;;37.70;32.90;;;;;;5072115;28;20563;-77
2021/06/14 12:27:07;;;;;;;3.50;1.10;;;37.60;33.10;;;;;;5072020;28;20616;-76
2021/06/14 12:29:34;;;;;;;2.33;0.90;;;37.50;32.70;;;;;;5070484;28;20653;-77
2021/06/14 12:32:07;;;;;;;3.83;1.37;;;37.40;32.70;;;;;;5059895;28;20625;-79
2021/06/14 12:34:34;;;;;;;3.93;1.40;;;37.20;32.50;;;;;;5059707;28;20579;-76
2021/06/14 12:37:07;;;;;;;4.27;1.50;;;37.00;32.70;;;;;;5061452;28;20926;-76
2021/06/14 12:39:34;;;;;;;3.17;1.53;;;36.70;32.90;;;;;;5057769;28;20671;-77
2021/06/14 12:42:00;;;;;;;1.60;1.10;;;36.50;32.60;;;;;;5063787;28;20564;-77
2021/06/14 12:44:27;;;;;;;1.73;0.90;;;36.20;32.50;;;;;;5060685;28;20576;-78
2021/06/14 12:46:53;;;;;;;3.30;1.20;;;35.90;32.70;;;;;;5060442;28;20629;-76
2021/06/14 12:49:29;;;;;;;2.87;1.30;;;35.70;32.70;;;;;;5044557;28;20614;-77
2021/06/14 12:51:55;;;;;;;2.73;1.30;;;35.40;32.90;;;;;;5060807;28;20560;-76
2021/06/14 12:54:22;;;;;;;3.83;1.77;;;35.10;33.00;;;;;;5064981;28;20574;-76
2021/06/14 12:56:55;;;;;;;2.87;1.50;;;34.80;33.20;;;;;;5067049;28;20285;-76
2021/06/14 12:59:22;;;;;;;1.80;1.37;;;34.60;33.80;;;;;;5064110;28;20680;-76
2021/06/14 13:01:48;;;;;;;2.33;1.40;;;34.30;33.60;;;;;;5061589;28;20568;-76
2021/06/14 13:04:14;;;;;;;1.90;1.43;;;34.00;33.50;;;;;;5057504;28;20626;-76
2021/06/14 13:06:41;;;;;;;4.90;1.73;;;33.80;33.60;;;;;;5062082;28;21180;-76
2021/06/14 13:09:08;;;;;;;3.43;1.67;;;33.60;33.60;;;;;;5065012;28;20582;-76